Latest Coastal Weather Observations for Norah Head

IDN60701

Issued at 10:41 am EDT Monday 30 March 2015 (issued every 10 minutes, with the page automatically refreshed every 10 minutes)

About coastal observations | Map of coastal stations | Coastal observations for NSW | Marine services | Other Formats
Station Details ID: 061366 Name: NORAH HEAD AWS Lat: -33.28 Lon: 151.58 Height: 18.8 m
Data from the previous 72 hours. | See also: Recent months at Norah Head
Date/Time
EDT
Temp

°C
Wind Pressure Rain
since 9am
mm
Weather Cloud Vis
km
Sea
Height
m
Swell
Dir
 
Speed
knots
Gust
knots
hPa Trend Height
m
Period
s
Dir
30/10:30am 21.2 SW 3 5 1023.5 - 0.0 - - - - - - -
30/10:00am 20.9 NW 4 9 1023.5 - 0.0 - - - - - - -
30/09:30am 20.1 NW 5 7 1024.0 - 0.0 - - - - - - -
30/09:00am 19.6 W 6 11 1023.8 - 0.0 - - - - - - -
30/08:30am 19.3 W 7 11 1023.7 - 0.0 - - - - - - -
30/08:00am 19.4 W 7 10 1023.5 - 0.0 - - - - - - -
30/07:30am 19.6 W 8 11 1023.1 - 0.0 - - - - - - -
30/07:00am 19.6 W 8 10 1022.8 - 0.0 - - - - - - -
30/06:30am 19.7 WSW 8 9 1022.2 - 0.0 - - - - - - -
30/06:00am 20.8 SW 4 6 1021.9 - 0.0 - - - - - - -
30/05:30am 21.2 SSW 5 6 1021.5 - 0.0 - - - - - - -
30/05:00am 21.1 SW 3 5 1021.3 - 0.0 - - - - - - -
30/04:30am 20.6 SW 3 5 1021.1 - 0.0 - - - - - - -
30/04:00am 20.8 CALM 0 3 1021.0 - 0.0 - - - - - - -
30/03:30am 21.1 CALM 0 0 1021.2 - 0.0 - - - - - - -
30/03:00am 21.4 CALM 0 0 1021.5 - 0.0 - - - - - - -
30/02:30am 21.4 NE 1 3 1021.7 - 0.0 - - - - - - -
30/02:00am 21.2 CALM 0 0 1021.9 - 0.0 - - - - - - -
30/01:30am 21.0 NNW 2 3 1022.0 - 0.0 - - - - - - -
30/01:00am 21.4 NNW 2 4 1022.1 - 0.0 - - - - - - -
30/12:30am 21.8 N 6 7 1022.2 - 0.0 - - - - - - -
30/12:00am 22.2 NNE 12 13 1022.3 - 0.0 - - - - - - -
 
Date/Time
EDT
Temp

°C
Wind Pressure Rain
since 9am
mm
Weather Cloud Vis
km
Sea
Height
m
Swell
Dir
 
Speed
knots
Gust
knots
hPa Trend Height
m
Period
s
Dir
29/11:30pm 22.4 NNE 13 15 1022.4 - 0.0 - - - - - - -
29/11:00pm 22.5 NNE 14 16 1022.5 - 0.0 - - - - - - -
29/10:30pm 22.5 NNE 14 17 1022.3 - 0.0 - - - - - - -
29/10:00pm 22.5 NE 15 19 1022.2 - 0.0 - - - - - - -
29/09:30pm 22.7 NNE 15 18 1022.0 - 0.0 - - - - - - -
29/09:00pm 22.4 NE 15 17 1021.8 - 0.0 - - - - - - -
29/08:30pm 22.4 NE 14 17 1021.6 - 0.0 - - - - - - -
29/08:00pm 22.3 NE 14 16 1021.5 - 0.0 - - - - - - -
29/07:30pm 22.1 NE 13 15 1021.2 - 0.0 - - - - - - -
29/07:00pm 21.8 NE 13 15 1021.0 - 0.0 - - - - - - -
29/06:30pm 22.0 NE 13 15 1021.0 - 0.0 - - - - - - -
29/06:00pm 22.3 NE 14 16 1021.0 - 0.0 - - - - - - -
29/05:30pm 22.4 NE 12 14 1020.8 - 0.0 - - - - - - -
29/05:00pm 22.7 NE 11 14 1021.3 - 0.0 - - - - - - -
29/04:30pm 23.3 NE 11 14 1021.2 - 0.0 - - - - - - -
29/04:00pm 24.6 NE 12 14 1020.9 - 0.0 - - - - - - -
29/03:30pm 24.8 NE 11 13 1021.0 - 0.0 - - - - - - -
29/03:00pm 25.5 NE 9 11 1021.4 - 0.0 - - - - - - -
29/02:30pm 24.6 ENE 9 11 1021.7 - 0.0 - - - - - - -
29/02:00pm 24.6 ENE 8 10 1021.9 - 0.0 - - - - - - -
29/01:30pm 26.5 NE 9 10 1022.1 - 0.0 - - - - - - -
29/01:00pm 26.5 NE 7 8 1022.6 - 0.0 - - - - - - -
29/12:30pm 25.4 NE 4 5 1023.0 - 0.0 - - - - - - -
29/12:00pm 23.0 NNE 2 3 1023.2 - 0.0 - - - - - - -
29/11:30am 23.3 NE 1 3 1023.2 - 0.0 - - - - - - -
29/11:00am 23.6 N 2 3 1023.3 - 0.0 - - - - - - -
29/10:30am 22.1 NNW 2 3 1023.6 - 0.0 - - - - - - -
29/10:00am 21.0 W 1 3 1023.6 - 0.0 - - - - - - -
29/09:30am 21.2 CALM 0 2 1023.3 - 0.0 - - - - - - -
29/09:00am 18.8 CALM 0 0 1023.2 - 0.0 - - - - - - -
29/08:30am 18.2 CALM 0 2 1023.1 - 0.0 - - - - - - -
29/08:00am 17.7 WSW 3 4 1022.7 - 0.0 - - - - - - -
29/07:30am 17.5 SW 1 2 1022.4 - 0.0 - - - - - - -
29/07:00am 17.5 WSW 1 2 1022.2 - 0.0 - - - - - - -
29/06:30am 17.5 SW 2 2 1022.0 - 0.0 - - - - - - -
29/06:00am 17.5 W 2 3 1021.8 - 0.0 - - - - - - -
29/05:30am 18.3 CALM 0 0 1021.7 - 0.0 - - - - - - -
29/05:00am 18.2 CALM 0 0 1021.7 - 0.0 - - - - - - -
29/04:30am 18.4 CALM 0 0 1021.8 - 0.0 - - - - - - -
29/04:00am 18.4 CALM 0 2 1021.8 - 0.0 - - - - - - -
29/03:30am 19.0 NW 2 3 1021.7 - 0.0 - - - - - - -
29/03:00am 19.2 NW 3 5 1022.0 - 0.0 - - - - - - -
29/02:30am 19.9 ENE 6 9 1022.2 - 0.0 - - - - - - -
29/02:00am 19.6 ENE 6 8 1022.3 - 0.0 - - - - - - -
29/01:30am 19.3 NE 6 9 1022.4 - 0.0 - - - - - - -
29/01:00am 19.6 ENE 6 9 1022.7 - 0.0 - - - - - - -
29/12:30am 20.3 ENE 6 8 1022.8 - 0.0 - - - - - - -
29/12:00am 20.4 ESE 7 9 1022.9 - 0.0 - - - - - - -
 
Date/Time
EDT
Temp

°C
Wind Pressure Rain
since 9am
mm
Weather Cloud Vis
km
Sea
Height
m
Swell
Dir
 
Speed
knots
Gust
knots
hPa Trend Height
m
Period
s
Dir
28/11:30pm 20.4 SE 6 8 1023.3 - 0.0 - - - - - - -
28/11:00pm 20.2 SE 6 8 1023.4 - 0.0 - - - - - - -
28/10:30pm 20.3 SE 6 9 1023.4 - 0.0 - - - - - - -
28/10:00pm 20.2 SE 7 9 1023.5 - 0.0 - - - - - - -
28/09:30pm 20.2 SE 8 11 1023.2 - 0.0 - - - - - - -
28/09:00pm 19.8 SE 9 11 1022.9 - 0.0 - - - - - - -
28/08:30pm 19.8 SE 9 13 1022.7 - 0.0 - - - - - - -
28/08:00pm 19.8 SE 10 14 1022.3 - 0.0 - - - - - - -
28/07:30pm 19.6 SE 9 11 1022.2 - 0.0 - - - - - - -
28/07:00pm 19.7 SE 9 11 1022.0 - 0.0 - - - - - - -
28/06:30pm 19.8 SE 7 10 1021.9 - 0.0 - - - - - - -
28/06:00pm 20.1 SE 9 11 1021.6 - 0.0 - - - - - - -
28/05:30pm 20.6 SE 9 11 1021.6 - 0.0 - - - - - - -
28/05:00pm 21.0 SE 11 14 1021.5 - 0.0 - - - - - - -
28/04:30pm 21.5 SE 10 12 1021.6 - 0.0 - - - - - - -
28/04:00pm 21.8 SSE 12 15 1021.6 - 0.0 - - - - - - -
28/03:30pm 22.1 SSE 14 16 1021.7 - 0.0 - - - - - - -
28/03:00pm 22.3 SSE 13 15 1021.8 - 0.0 - - - - - - -
28/02:30pm 22.3 SSE 12 15 1022.0 - 0.0 - - - - - - -
28/02:00pm 22.3 SSE 12 16 1022.3 - 0.0 - - - - - - -
28/01:30pm 22.2 S 10 13 1022.6 - 0.0 - - - - - - -
28/01:00pm 21.8 S 11 15 1022.8 - 0.0 - - - - - - -
28/12:30pm 21.7 S 10 13 1023.0 - 0.0 - - - - - - -
28/12:00pm 21.4 SSW 10 13 1023.2 - 0.0 - - - - - - -
28/11:30am 21.6 S 8 12 1023.2 - 0.0 - - - - - - -
28/11:00am 21.5 SSW 7 11 1023.3 - 0.0 - - - - - - -
28/10:30am 20.7 SSW 8 11 1023.3 - 0.0 - - - - - - -
28/10:00am 20.1 SW 5 8 1023.2 - 0.0 - - - - - - -
28/09:30am 19.3 WSW 5 10 1023.1 - 0.0 - - - - - - -
28/09:00am 18.1 W 5 10 1022.9 - 0.0 - - - - - - -
28/08:30am 17.0 W 6 10 1022.6 - 0.0 - - - - - - -
28/08:00am 16.0 W 6 10 1022.2 - 0.0 - - - - - - -
28/07:30am 15.1 W 7 9 1021.8 - 0.0 - - - - - - -
28/07:00am 14.7 W 7 9 1021.4 - 0.0 - - - - - - -
28/06:30am 15.1 W 7 9 1021.2 - 0.0 - - - - - - -
28/06:00am 15.0 W 7 9 1020.9 - 0.0 - - - - - - -
28/05:30am 14.7 W 6 8 1020.6 - 0.0 - - - - - - -
28/05:00am 14.9 W 5 7 1020.2 - 0.0 - - - - - - -
28/04:30am 15.3 W 5 8 1020.0 - 0.0 - - - - - - -
28/04:00am 15.6 W 6 8 1020.1 - 0.0 - - - - - - -
28/03:30am 16.5 WSW 7 8 1020.1 - 0.0 - - - - - - -
28/03:00am 16.7 WSW 7 8 1020.2 - 0.0 - - - - - - -
28/02:30am 16.7 WSW 7 9 1020.4 - 0.0 - - - - - - -
28/02:00am 17.7 SW 6 8 1020.5 - 0.0 - - - - - - -
28/01:30am 17.7 SW 5 7 1020.5 - 0.0 - - - - - - -
28/01:00am 17.7 WSW 9 12 1020.4 - 0.0 - - - - - - -
28/12:30am 18.2 WSW 7 9 1020.4 - 0.0 - - - - - - -
28/12:00am 18.0 W 7 9 1020.4 - 0.0 - - - - - - -
 
Date/Time
EDT
Temp

°C
Wind Pressure Rain
since 9am
mm
Weather Cloud Vis
km
Sea
Height
m
Swell
Dir
 
Speed
knots
Gust
knots
hPa Trend Height
m
Period
s
Dir
27/11:30pm 17.7 W 7 10 1020.3 - 0.0 - - - - - - -
27/11:00pm 18.4 W 5 7 1020.2 - 0.0 - - - - - - -
27/10:30pm 18.8 W 3 5 1020.2 - 0.0 - - - - - - -
27/10:00pm 19.1 WNW 4 5 1020.0 - 0.0 - - - - - - -
27/09:30pm 18.6 WNW 3 3 1019.9 - 0.0 - - - - - - -
27/09:00pm 18.9 NW 3 4 1019.6 - 0.0 - - - - - - -
27/08:30pm 19.4 NNW 3 3 1019.0 - 0.0 - - - - - - -
27/08:00pm 19.9 ENE 3 6 1018.5 - 0.0 - - - - - - -
27/07:30pm 20.5 NNE 9 10 1017.9 - 0.0 - - - - - - -
27/07:00pm 20.1 NNE 8 10 1017.6 - 0.0 - - - - - - -
27/06:30pm 20.3 NE 8 9 1017.5 - 0.0 - - - - - - -
27/06:00pm 21.1 ENE 7 8 1017.2 - 0.0 - - - - - - -
27/05:30pm 21.6 E 7 8 1017.1 - 0.0 - - - - - - -
27/05:00pm 21.6 E 8 10 1017.1 - 0.0 - - - - - - -
27/04:30pm 21.7 ENE 8 11 1017.1 - 0.0 - - - - - - -
27/04:00pm 21.9 E 9 11 1017.2 - 0.0 - - - - - - -
27/03:30pm 22.6 ESE 8 10 1017.5 - 0.0 - - - - - - -
27/03:00pm 22.9 ESE 6 8 1017.7 - 0.0 - - - - - - -
27/02:30pm 23.8 S 3 6 1018.2 - 0.0 - - - - - - -
27/02:00pm 23.6 SSW 3 6 1018.5 - 0.0 - - - - - - -
27/01:30pm 22.8 SW 5 9 1019.0 - 0.0 - - - - - - -
27/01:00pm 22.3 SW 4 7 1019.4 - 0.0 - - - - - - -
27/12:30pm 21.4 SW 5 10 1019.9 - 0.0 - - - - - - -
27/12:00pm 21.0 WSW 5 10 1020.4 - 0.0 - - - - - - -
27/11:30am 20.8 SW 2 6 1020.6 - 0.0 - - - - - - -
27/11:00am 19.9 W 3 7 1020.7 - 0.0 - - - - - - -

Other Formats:

Comma delimited format used in spreadsheet applications
http://www.bom.gov.au/fwo/IDN60701/IDN60701.95770.axf

JavaScript Object Notation format (JSON) in row-major order
http://www.bom.gov.au/fwo/IDN60701/IDN60701.95770.json